sensor_id;sensor_type;location;lat;lon;timestamp;pressure;altitude;pressure_sealevel;temperature;humidity
7050;BME280;22263;52.260;10.548;2022-12-07T00:00:25;100361.44;;;2.60;100.00
7050;BME280;22263;52.260;10.548;2022-12-07T00:02:55;100355.34;;;2.63;100.00
7050;BME280;22263;52.260;10.548;2022-12-07T00:05:29;100348.47;;;2.57;100.00
7050;BME280;22263;52.260;10.548;2022-12-07T00:07:59;100350.81;;;2.67;100.00
7050;BME280;22263;52.260;10.548;2022-12-07T00:10:29;100342.91;;;2.74;100.00
7050;BME280;22263;52.260;10.548;2022-12-07T00:12:58;100325.78;;;2.65;100.00
7050;BME280;22263;52.260;10.548;2022-12-07T00:15:28;100335.50;;;2.75;100.00
7050;BME280;22263;52.260;10.548;2022-12-07T00:17:58;100343.72;;;2.75;100.00
7050;BME280;22263;52.260;10.548;2022-12-07T00:20:30;100334.06;;;2.77;100.00
7050;BME280;22263;52.260;10.548;2022-12-07T00:22:59;100332.91;;;2.78;100.00
7050;BME280;22263;52.260;10.548;2022-12-07T00:25:30;100333.41;;;2.80;100.00
7050;BME280;22263;52.260;10.548;2022-12-07T00:27:59;100327.28;;;2.83;100.00
7050;BME280;22263;52.260;10.548;2022-12-07T00:30:29;100327.63;;;2.82;100.00
7050;BME280;22263;52.260;10.548;2022-12-07T00:32:59;100326.63;;;2.86;100.00
7050;BME280;22263;52.260;10.548;2022-12-07T00:35:31;100327.56;;;2.90;100.00
7050;BME280;22263;52.260;10.548;2022-12-07T00:38:00;100325.69;;;2.82;100.00
7050;BME280;22263;52.260;10.548;2022-12-07T00:40:30;100327.56;;;2.90;100.00
7050;BME280;22263;52.260;10.548;2022-12-07T00:43:00;100331.22;;;2.94;100.00
7050;BME280;22263;52.260;10.548;2022-12-07T00:45:29;100325.31;;;2.92;100.00
7050;BME280;22263;52.260;10.548;2022-12-07T00:47:59;100311.78;;;2.96;100.00
7050;BME280;22263;52.260;10.548;2022-12-07T00:50:31;100313.03;;;2.98;100.00
7050;BME280;22263;52.260;10.548;2022-12-07T00:53:01;100318.06;;;2.96;100.00
7050;BME280;22263;52.260;10.548;2022-12-07T00:55:32;100308.69;;;2.97;100.00
7050;BME280;22263;52.260;10.548;2022-12-07T00:58:02;100303.72;;;2.99;100.00
7050;BME280;22263;52.260;10.548;2022-12-07T01:00:35;100292.47;;;3.01;100.00
7050;BME280;22263;52.260;10.548;2022-12-07T01:03:08;100300.66;;;3.01;100.00
7050;BME280;22263;52.260;10.548;2022-12-07T01:05:49;100296.66;;;2.98;100.00
7050;BME280;22263;52.260;10.548;2022-12-07T01:08:19;100297.94;;;3.01;100.00
7050;BME280;22263;52.260;10.548;2022-12-07T01:10:49;100296.81;;;3.02;100.00
7050;BME280;22263;52.260;10.548;2022-12-07T01:13:19;100294.53;;;3.04;100.00
7050;BME280;22263;52.260;10.548;2022-12-07T01:15:48;100297.88;;;3.10;100.00
7050;BME280;22263;52.260;10.548;2022-12-07T01:18:18;100293.72;;;3.03;100.00
7050;BME280;22263;52.260;10.548;2022-12-07T01:20:59;100285.81;;;3.11;100.00
7050;BME280;22263;52.260;10.548;2022-12-07T01:23:30;100292.41;;;3.10;100.00
7050;BME280;22263;52.260;10.548;2022-12-07T01:26:02;100291.59;;;3.09;100.00
7050;BME280;22263;52.260;10.548;2022-12-07T01:28:33;100282.81;;;3.03;100.00
7050;BME280;22263;52.260;10.548;2022-12-07T01:31:06;100282.16;;;3.06;100.00
7050;BME280;22263;52.260;10.548;2022-12-07T01:33:37;100281.00;;;3.07;100.00
7050;BME280;22263;52.260;10.548;2022-12-07T01:36:15;100287.25;;;3.08;100.00
7050;BME280;22263;52.260;10.548;2022-12-07T01:38:46;100278.25;;;3.07;100.00
7050;BME280;22263;52.260;10.548;2022-12-07T01:41:18;100275.69;;;3.11;100.00
7050;BME280;22263;52.260;10.548;2022-12-07T01:44:14;100263.47;;;3.08;100.00
7050;BME280;22263;52.260;10.548;2022-12-07T01:46:45;100267.00;;;3.09;100.00
7050;BME280;22263;52.260;10.548;2022-12-07T01:49:23;100264.41;;;3.13;100.00
7050;BME280;22263;52.260;10.548;2022-12-07T01:52:01;100256.41;;;3.07;100.00
7050;BME280;22263;52.260;10.548;2022-12-07T01:54:34;100266.69;;;3.11;100.00
7050;BME280;22263;52.260;10.548;2022-12-07T01:57:04;100256.41;;;3.07;100.00
7050;BME280;22263;52.260;10.548;2022-12-07T01:59:36;100267.34;;;3.07;100.00
7050;BME280;22263;52.260;10.548;2022-12-07T02:02:10;100256.09;;;3.09;100.00
7050;BME280;22263;52.260;10.548;2022-12-07T02:04:42;100264.56;;;3.16;100.00
7050;BME280;22263;52.260;10.548;2022-12-07T02:07:15;100250.09;;;3.16;100.00
7050;BME280;22263;52.260;10.548;2022-12-07T02:09:45;100247.22;;;3.12;100.00
7050;BME280;22263;52.260;10.548;2022-12-07T02:12:14;100238.56;;;3.10;100.00
7050;BME280;22263;52.260;10.548;2022-12-07T02:14:44;100244.28;;;3.17;100.00
7050;BME280;22263;52.260;10.548;2022-12-07T02:17:18;100245.88;;;3.18;100.00
7050;BME280;22263;52.260;10.548;2022-12-07T02:20:07;100241.91;;;3.16;100.00
7050;BME280;22263;52.260;10.548;2022-12-07T02:23:04;100245.88;;;3.18;100.00
7050;BME280;22263;52.260;10.548;2022-12-07T02:25:54;100242.81;;;3.20;100.00
7050;BME280;22263;52.260;10.548;2022-12-07T02:28:29;100244.44;;;3.21;100.00
7050;BME280;22263;52.260;10.548;2022-12-07T02:31:08;100239.41;;;3.23;100.00
7050;BME280;22263;52.260;10.548;2022-12-07T02:33:43;100230.28;;;3.19;100.00
7050;BME280;22263;52.260;10.548;2022-12-07T02:36:17;100227.56;;;3.19;100.00
7050;BME280;22263;52.260;10.548;2022-12-07T02:38:54;100236.22;;;3.21;100.00
7050;BME280;22263;52.260;10.548;2022-12-07T02:41:28;100224.81;;;3.19;100.00
7050;BME280;22263;52.260;10.548;2022-12-07T02:44:01;100207.50;;;3.15;100.00
7050;BME280;22263;52.260;10.548;2022-12-07T02:46:38;100218.47;;;3.27;100.00
7050;BME280;22263;52.260;10.548;2022-12-07T02:49:10;100217.66;;;3.26;100.00
7050;BME280;22263;52.260;10.548;2022-12-07T02:51:42;100197.50;;;3.19;100.00
7050;BME280;22263;52.260;10.548;2022-12-07T02:54:14;100214.81;;;3.23;100.00
7050;BME280;22263;52.260;10.548;2022-12-07T02:56:47;100213.00;;;3.27;100.00
7050;BME280;22263;52.260;10.548;2022-12-07T02:59:26;100212.81;;;3.32;100.00
7050;BME280;22263;52.260;10.548;2022-12-07T03:02:09;100210.75;;;3.29;100.00
7050;BME280;22263;52.260;10.548;2022-12-07T03:04:52;100202.44;;;3.25;100.00
7050;BME280;22263;52.260;10.548;2022-12-07T03:07:28;100209.63;;;3.30;100.00
7050;BME280;22263;52.260;10.548;2022-12-07T03:10:03;100202.44;;;3.25;100.00
7050;BME280;22263;52.260;10.548;2022-12-07T03:12:40;100206.22;;;3.33;100.00
7050;BME280;22263;52.260;10.548;2022-12-07T03:15:16;100202.00;;;3.35;100.00
7050;BME280;22263;52.260;10.548;2022-12-07T03:17:51;100197.69;;;3.34;100.00
7050;BME280;22263;52.260;10.548;2022-12-07T03:20:23;100195.53;;;3.40;100.00
7050;BME280;22263;52.260;10.548;2022-12-07T03:22:54;100200.31;;;3.43;100.00
7050;BME280;22263;52.260;10.548;2022-12-07T03:25:24;100206.69;;;3.47;100.00
7050;BME280;22263;52.260;10.548;2022-12-07T03:27:57;100198.63;;;3.50;100.00
7050;BME280;22263;52.260;10.548;2022-12-07T03:30:34;100198.06;;;3.57;100.00
7050;BME280;22263;52.260;10.548;2022-12-07T03:33:12;100198.19;;;3.61;100.00
7050;BME280;22263;52.260;10.548;2022-12-07T03:35:45;100194.22;;;3.58;100.00
7050;BME280;22263;52.260;10.548;2022-12-07T03:38:21;100189.09;;;3.69;100.00
7050;BME280;22263;52.260;10.548;2022-12-07T03:40:56;100198.09;;;3.69;100.00
7050;BME280;22263;52.260;10.548;2022-12-07T03:43:28;100195.22;;;3.66;100.00
7050;BME280;22263;52.260;10.548;2022-12-07T03:46:01;100192.38;;;3.74;100.00
7050;BME280;22263;52.260;10.548;2022-12-07T03:48:42;100190.69;;;3.70;100.00
7050;BME280;22263;52.260;10.548;2022-12-07T03:51:19;100181.81;;;3.73;100.00
7050;BME280;22263;52.260;10.548;2022-12-07T03:53:54;100176.78;;;3.75;100.00
7050;BME280;22263;52.260;10.548;2022-12-07T03:56:28;100182.13;;;3.71;100.00
7050;BME280;22263;52.260;10.548;2022-12-07T03:58:59;100184.44;;;3.69;100.00
7050;BME280;22263;52.260;10.548;2022-12-07T04:01:29;100189.44;;;3.67;100.00
7050;BME280;22263;52.260;10.548;2022-12-07T04:04:01;100180.53;;;3.70;100.00
7050;BME280;22263;52.260;10.548;2022-12-07T04:06:30;100188.97;;;3.65;100.00
7050;BME280;22263;52.260;10.548;2022-12-07T04:09:00;100196.03;;;3.66;100.00
7050;BME280;22263;52.260;10.548;2022-12-07T04:11:30;100200.38;;;3.67;100.00
7050;BME280;22263;52.260;10.548;2022-12-07T04:14:00;100202.88;;;3.72;100.00
7050;BME280;22263;52.260;10.548;2022-12-07T04:16:42;100199.81;;;3.74;100.00
7050;BME280;22263;52.260;10.548;2022-12-07T04:19:15;100190.81;;;3.73;100.00
7050;BME280;22263;52.260;10.548;2022-12-07T04:21:46;100191.25;;;3.75;100.00
7050;BME280;22263;52.260;10.548;2022-12-07T04:24:16;100195.25;;;3.78;100.00
7050;BME280;22263;52.260;10.548;2022-12-07T04:26:46;100192.63;;;3.81;100.00
7050;BME280;22263;52.260;10.548;2022-12-07T04:29:17;100196.50;;;3.80;100.00
7050;BME280;22263;52.260;10.548;2022-12-07T04:31:47;100190.22;;;3.80;100.00
7050;BME280;22263;52.260;10.548;2022-12-07T04:34:20;100187.97;;;3.82;100.00
7050;BME280;22263;52.260;10.548;2022-12-07T04:36:49;100184.53;;;3.85;100.00
7050;BME280;22263;52.260;10.548;2022-12-07T04:39:21;100183.31;;;3.82;100.00
7050;BME280;22263;52.260;10.548;2022-12-07T04:41:52;100179.88;;;3.85;100.00
7050;BME280;22263;52.260;10.548;2022-12-07T04:44:22;100181.47;;;3.86;100.00
7050;BME280;22263;52.260;10.548;2022-12-07T04:46:53;100175.53;;;3.84;100.00
7050;BME280;22263;52.260;10.548;2022-12-07T04:49:26;100184.91;;;3.83;100.00
7050;BME280;22263;52.260;10.548;2022-12-07T04:51:56;100175.22;;;3.86;100.00
7050;BME280;22263;52.260;10.548;2022-12-07T04:54:25;100179.44;;;3.83;100.00
7050;BME280;22263;52.260;10.548;2022-12-07T04:56:55;100181.38;;;3.83;100.00
7050;BME280;22263;52.260;10.548;2022-12-07T04:59:25;100172.47;;;3.86;100.00
7050;BME280;22263;52.260;10.548;2022-12-07T05:01:55;100181.94;;;3.88;100.00
7050;BME280;22263;52.260;10.548;2022-12-07T05:04:27;100184.09;;;3.83;100.00
7050;BME280;22263;52.260;10.548;2022-12-07T05:06:57;100178.63;;;3.83;100.00
7050;BME280;22263;52.260;10.548;2022-12-07T05:09:26;100185.22;;;3.82;100.00
7050;BME280;22263;52.260;10.548;2022-12-07T05:11:56;100180.22;;;3.84;100.00
7050;BME280;22263;52.260;10.548;2022-12-07T05:14:25;100183.75;;;3.84;100.00
7050;BME280;22263;52.260;10.548;2022-12-07T05:16:55;100180.56;;;3.82;100.00
7050;BME280;22263;52.260;10.548;2022-12-07T05:19:27;100182.03;;;3.80;100.00
7050;BME280;22263;52.260;10.548;2022-12-07T05:21:57;100177.25;;;3.77;100.00
7050;BME280;22263;52.260;10.548;2022-12-07T05:24:26;100176.78;;;3.75;100.00
7050;BME280;22263;52.260;10.548;2022-12-07T05:26:56;100180.22;;;3.72;100.00
7050;BME280;22263;52.260;10.548;2022-12-07T05:29:26;100186.16;;;3.74;100.00
7050;BME280;22263;52.260;10.548;2022-12-07T05:31:55;100189.53;;;3.71;100.00
7050;BME280;22263;52.260;10.548;2022-12-07T05:34:27;100185.09;;;3.66;100.00
7050;BME280;22263;52.260;10.548;2022-12-07T05:36:57;100180.66;;;3.62;100.00
7050;BME280;22263;52.260;10.548;2022-12-07T05:39:27;100182.69;;;3.65;100.00
7050;BME280;22263;52.260;10.548;2022-12-07T05:41:56;100183.50;;;3.65;100.00
7050;BME280;22263;52.260;10.548;2022-12-07T05:44:38;100174.38;;;3.61;100.00
7050;BME280;22263;52.260;10.548;2022-12-07T05:47:08;100172.34;;;3.58;100.00
7050;BME280;22263;52.260;10.548;2022-12-07T05:49:41;100174.75;;;3.60;100.00
7050;BME280;22263;52.260;10.548;2022-12-07T05:52:10;100172.34;;;3.58;100.00
7050;BME280;22263;52.260;10.548;2022-12-07T05:54:40;100174.25;;;3.58;100.00
7050;BME280;22263;52.260;10.548;2022-12-07T05:57:10;100178.47;;;3.55;100.00
7050;BME280;22263;52.260;10.548;2022-12-07T05:59:40;100168.69;;;3.54;100.00
7050;BME280;22263;52.260;10.548;2022-12-07T06:02:08;100175.88;;;3.59;100.00
7050;BME280;22263;52.260;10.548;2022-12-07T06:04:43;100179.41;;;3.59;100.00
7050;BME280;22263;52.260;10.548;2022-12-07T06:07:15;100167.78;;;3.62;100.00
7050;BME280;22263;52.260;10.548;2022-12-07T06:09:45;100170.63;;;3.66;100.00
7050;BME280;22263;52.260;10.548;2022-12-07T06:12:14;100173.56;;;3.61;100.00
7050;BME280;22263;52.260;10.548;2022-12-07T06:14:57;100170.50;;;3.62;100.00
7050;BME280;22263;52.260;10.548;2022-12-07T06:17:27;100180.88;;;3.57;100.00
7050;BME280;22263;52.260;10.548;2022-12-07T06:19:59;100174.75;;;3.60;100.00
7050;BME280;22263;52.260;10.548;2022-12-07T06:22:29;100181.44;;;3.50;100.00
7050;BME280;22263;52.260;10.548;2022-12-07T06:24:58;100188.38;;;3.47;100.00
7050;BME280;22263;52.260;10.548;2022-12-07T06:27:34;100180.94;;;3.36;100.00
7050;BME280;22263;52.260;10.548;2022-12-07T06:30:05;100186.97;;;3.29;100.00
7050;BME280;22263;52.260;10.548;2022-12-07T06:32:36;100183.91;;;3.31;100.00
7050;BME280;22263;52.260;10.548;2022-12-07T06:35:09;100186.28;;;3.32;100.00
7050;BME280;22263;52.260;10.548;2022-12-07T06:37:38;100183.66;;;3.36;100.00
7050;BME280;22263;52.260;10.548;2022-12-07T06:40:09;100192.44;;;3.41;100.00
7050;BME280;22263;52.260;10.548;2022-12-07T06:42:39;100193.47;;;3.37;100.00
7050;BME280;22263;52.260;10.548;2022-12-07T06:45:09;100193.34;;;3.33;100.00
7050;BME280;22263;52.260;10.548;2022-12-07T06:47:39;100190.94;;;3.32;100.00
7050;BME280;22263;52.260;10.548;2022-12-07T06:50:14;100192.53;;;3.33;100.00
7050;BME280;22263;52.260;10.548;2022-12-07T06:52:43;100185.03;;;3.30;100.00
7050;BME280;22263;52.260;10.548;2022-12-07T06:55:13;100190.03;;;3.28;100.00
7050;BME280;22263;52.260;10.548;2022-12-07T06:57:43;100191.75;;;3.32;100.00
7050;BME280;22263;52.260;10.548;2022-12-07T07:00:14;100193.34;;;3.33;100.00
7050;BME280;22263;52.260;10.548;2022-12-07T07:02:47;100200.41;;;3.34;100.00
7050;BME280;22263;52.260;10.548;2022-12-07T07:05:20;100188.69;;;3.34;100.00
7050;BME280;22263;52.260;10.548;2022-12-07T07:07:50;100182.53;;;3.37;100.00
7050;BME280;22263;52.260;10.548;2022-12-07T07:10:40;100178.66;;;3.38;100.00
7050;BME280;22263;52.260;10.548;2022-12-07T07:13:09;100184.84;;;3.47;100.00
7050;BME280;22263;52.260;10.548;2022-12-07T07:15:39;100189.50;;;3.46;100.00
7050;BME280;22263;52.260;10.548;2022-12-07T07:18:09;100184.38;;;3.45;100.00
7050;BME280;22263;52.260;10.548;2022-12-07T07:20:41;100193.94;;;3.51;100.00
7050;BME280;22263;52.260;10.548;2022-12-07T07:23:11;100196.03;;;3.54;100.00
7050;BME280;22263;52.260;10.548;2022-12-07T07:25:41;100200.91;;;3.48;100.00
7050;BME280;22263;52.260;10.548;2022-12-07T07:28:10;100204.44;;;3.49;100.00
7050;BME280;22263;52.260;10.548;2022-12-07T07:30:40;100198.28;;;3.52;100.00
7050;BME280;22263;52.260;10.548;2022-12-07T07:33:11;100210.22;;;3.47;100.00
7050;BME280;22263;52.260;10.548;2022-12-07T07:35:43;100211.38;;;3.46;100.00
7050;BME280;22263;52.260;10.548;2022-12-07T07:38:12;100197.84;;;3.50;100.00
7050;BME280;22263;52.260;10.548;2022-12-07T07:40:42;100203.03;;;3.43;100.00
7050;BME280;22263;52.260;10.548;2022-12-07T07:43:11;100202.03;;;3.47;100.00
7050;BME280;22263;52.260;10.548;2022-12-07T07:45:41;100211.38;;;3.46;100.00
7050;BME280;22263;52.260;10.548;2022-12-07T07:48:11;100200.09;;;3.48;100.00
7050;BME280;22263;52.260;10.548;2022-12-07T07:50:43;100214.09;;;3.46;100.00
7050;BME280;22263;52.260;10.548;2022-12-07T07:53:12;100221.28;;;3.51;100.00
7050;BME280;22263;52.260;10.548;2022-12-07T07:55:50;100219.72;;;3.50;100.00
7050;BME280;22263;52.260;10.548;2022-12-07T07:58:20;100206.25;;;3.45;100.00
7050;BME280;22263;52.260;10.548;2022-12-07T08:00:49;100208.41;;;3.51;100.00
7050;BME280;22263;52.260;10.548;2022-12-07T08:03:20;100220.94;;;3.53;100.00
7050;BME280;22263;52.260;10.548;2022-12-07T08:05:52;100213.34;;;3.58;100.00
7050;BME280;22263;52.260;10.548;2022-12-07T08:08:21;100221.75;;;3.53;100.00
7050;BME280;22263;52.260;10.548;2022-12-07T08:10:51;100229.47;;;3.51;100.00
7050;BME280;22263;52.260;10.548;2022-12-07T08:13:20;100222.56;;;3.54;100.00
7050;BME280;22263;52.260;10.548;2022-12-07T08:15:56;100225.84;;;3.47;100.00
7050;BME280;22263;52.260;10.548;2022-12-07T08:18:26;100226.41;;;3.53;100.00
7050;BME280;22263;52.260;10.548;2022-12-07T08:21:01;100225.41;;;3.57;100.00
7050;BME280;22263;52.260;10.548;2022-12-07T08:23:31;100233.03;;;3.51;100.00
7050;BME280;22263;52.260;10.548;2022-12-07T08:26:06;100227.00;;;3.58;100.00
7050;BME280;22263;52.260;10.548;2022-12-07T08:28:37;100210.28;;;3.60;100.00
7050;BME280;22263;52.260;10.548;2022-12-07T08:31:10;100226.91;;;3.67;100.00
7050;BME280;22263;52.260;10.548;2022-12-07T08:33:40;100214.72;;;3.64;100.00
7050;BME280;22263;52.260;10.548;2022-12-07T08:36:12;100217.69;;;3.59;100.00
7050;BME280;22263;52.260;10.548;2022-12-07T08:38:42;100217.91;;;3.66;100.00
7050;BME280;22263;52.260;10.548;2022-12-07T08:41:32;100208.47;;;3.64;100.00
7050;BME280;22263;52.260;10.548;2022-12-07T08:44:02;100219.97;;;3.69;100.00
7050;BME280;22263;52.260;10.548;2022-12-07T08:46:34;100213.34;;;3.70;100.00
7050;BME280;22263;52.260;10.548;2022-12-07T08:49:08;100209.91;;;3.61;100.00
7050;BME280;22263;52.260;10.548;2022-12-07T08:51:43;100221.91;;;3.69;100.00
7050;BME280;22263;52.260;10.548;2022-12-07T08:54:16;100222.47;;;3.62;100.00
7050;BME280;22263;52.260;10.548;2022-12-07T08:56:47;100229.16;;;3.65;100.00
7050;BME280;22263;52.260;10.548;2022-12-07T08:59:25;100230.91;;;3.69;100.00
7050;BME280;22263;52.260;10.548;2022-12-07T09:01:55;100228.03;;;3.66;100.00
7050;BME280;22263;52.260;10.548;2022-12-07T09:04:25;100227.25;;;3.65;100.00
7050;BME280;22263;52.260;10.548;2022-12-07T09:06:57;100227.38;;;3.69;100.00
7050;BME280;22263;52.260;10.548;2022-12-07T09:09:28;100228.03;;;3.66;100.00
7050;BME280;22263;52.260;10.548;2022-12-07T09:11:59;100225.66;;;3.76;100.00
7050;BME280;22263;52.260;10.548;2022-12-07T09:14:29;100240.84;;;3.86;100.00
7050;BME280;22263;52.260;10.548;2022-12-07T09:17:05;100235.91;;;3.79;100.00
7050;BME280;22263;52.260;10.548;2022-12-07T09:19:35;100232.84;;;3.69;100.00
7050;BME280;22263;52.260;10.548;2022-12-07T09:22:07;100240.47;;;3.75;100.00
7050;BME280;22263;52.260;10.548;2022-12-07T09:24:37;100232.84;;;3.69;100.00
7050;BME280;22263;52.260;10.548;2022-12-07T09:27:07;100221.78;;;3.65;100.00
7050;BME280;22263;52.260;10.548;2022-12-07T09:29:36;100227.16;;;3.74;100.00
7050;BME280;22263;52.260;10.548;2022-12-07T09:32:06;100225.34;;;3.78;100.00
7050;BME280;22263;52.260;10.548;2022-12-07T09:34:37;100214.19;;;3.83;100.00
7050;BME280;22263;52.260;10.548;2022-12-07T09:37:09;100227.06;;;3.82;100.00
7050;BME280;22263;52.260;10.548;2022-12-07T09:39:39;100222.25;;;3.79;100.00
7050;BME280;22263;52.260;10.548;2022-12-07T09:42:29;100218.75;;;3.79;100.00
7050;BME280;22263;52.260;10.548;2022-12-07T09:45:05;100225.13;;;3.83;100.00
7050;BME280;22263;52.260;10.548;2022-12-07T09:47:35;100221.22;;;3.84;100.00
7050;BME280;22263;52.260;10.548;2022-12-07T09:50:10;100216.91;;;3.83;100.00
7050;BME280;22263;52.260;10.548;2022-12-07T09:52:45;100224.44;;;3.86;100.00
7050;BME280;22263;52.260;10.548;2022-12-07T09:55:21;100219.53;;;3.91;100.00
7050;BME280;22263;52.260;10.548;2022-12-07T09:57:53;100210.53;;;3.91;100.00
7050;BME280;22263;52.260;10.548;2022-12-07T10:00:23;100218.84;;;3.94;100.00
7050;BME280;22263;52.260;10.548;2022-12-07T10:02:56;100217.94;;;3.90;100.00
7050;BME280;22263;52.260;10.548;2022-12-07T10:05:28;100213.97;;;3.88;100.00
7050;BME280;22263;52.260;10.548;2022-12-07T10:08:02;100211.78;;;3.93;100.00
7050;BME280;22263;52.260;10.548;2022-12-07T10:10:34;100218.75;;;3.91;100.00
7050;BME280;22263;52.260;10.548;2022-12-07T10:13:07;100214.06;;;3.91;100.00
7050;BME280;22263;52.260;10.548;2022-12-07T10:15:46;100218.84;;;3.94;100.00
7050;BME280;22263;52.260;10.548;2022-12-07T10:18:19;100209.28;;;4.01;100.00
7050;BME280;22263;52.260;10.548;2022-12-07T10:20:49;100219.22;;;4.05;100.00
7050;BME280;22263;52.260;10.548;2022-12-07T10:23:21;100213.63;;;4.02;100.00
7050;BME280;22263;52.260;10.548;2022-12-07T10:25:50;100207.25;;;4.10;100.00
7050;BME280;22263;52.260;10.548;2022-12-07T10:28:22;100213.28;;;4.15;100.00
7050;BME280;22263;52.260;10.548;2022-12-07T10:30:55;100220.59;;;4.11;100.00
7050;BME280;22263;52.260;10.548;2022-12-07T10:33:34;100210.66;;;4.07;100.00
7050;BME280;22263;52.260;10.548;2022-12-07T10:36:20;100203.81;;;4.13;100.00
7050;BME280;22263;52.260;10.548;2022-12-07T10:38:59;100207.13;;;4.06;100.00
7050;BME280;22263;52.260;10.548;2022-12-07T10:41:30;100204.84;;;4.08;100.00
7050;BME280;22263;52.260;10.548;2022-12-07T10:43:59;100203.59;;;4.06;100.00
7050;BME280;22263;52.260;10.548;2022-12-07T10:47:01;100209.28;;;4.13;100.00
7050;BME280;22263;52.260;10.548;2022-12-07T10:49:55;100205.06;;;4.15;100.00
7050;BME280;22263;52.260;10.548;2022-12-07T10:52:45;100203.25;;;4.19;100.00
7050;BME280;22263;52.260;10.548;2022-12-07T10:55:22;100195.13;;;4.23;100.00
7050;BME280;22263;52.260;10.548;2022-12-07T10:58:08;100189.13;;;4.05;100.00
7050;BME280;22263;52.260;10.548;2022-12-07T11:00:49;100201.78;;;4.22;100.00
7050;BME280;22263;52.260;10.548;2022-12-07T11:03:37;100199.47;;;4.24;100.00
7050;BME280;22263;52.260;10.548;2022-12-07T11:06:16;100204.38;;;4.18;100.00
7050;BME280;22263;52.260;10.548;2022-12-07T11:09:00;100191.28;;;4.24;100.00
7050;BME280;22263;52.260;10.548;2022-12-07T11:11:38;100184.19;;;4.35;100.00
7050;BME280;22263;52.260;10.548;2022-12-07T11:14:19;100184.63;;;4.49;100.00
7050;BME280;22263;52.260;10.548;2022-12-07T11:16:55;100179.59;;;4.51;100.00
7050;BME280;22263;52.260;10.548;2022-12-07T11:19:34;100182.78;;;4.53;100.00
7050;BME280;22263;52.260;10.548;2022-12-07T11:22:16;100183.03;;;4.48;100.00
7050;BME280;22263;52.260;10.548;2022-12-07T11:24:53;100170.72;;;4.42;100.00
7050;BME280;22263;52.260;10.548;2022-12-07T11:27:34;100171.19;;;4.44;100.00
7050;BME280;22263;52.260;10.548;2022-12-07T11:30:13;100167.72;;;4.47;100.00
7050;BME280;22263;52.260;10.548;2022-12-07T11:33:09;100174.06;;;4.35;100.00
7050;BME280;22263;52.260;10.548;2022-12-07T11:35:47;100172.09;;;4.36;100.00
7050;BME280;22263;52.260;10.548;2022-12-07T11:38:26;100160.47;;;4.27;100.00
7050;BME280;22263;52.260;10.548;2022-12-07T11:41:02;100181.66;;;4.42;100.00
7050;BME280;22263;52.260;10.548;2022-12-07T11:43:52;100172.06;;;4.48;100.00
7050;BME280;22263;52.260;10.548;2022-12-07T11:46:25;100161.72;;;4.81;100.00
7050;BME280;22263;52.260;10.548;2022-12-07T11:49:02;100157.28;;;4.77;100.00
7050;BME280;22263;52.260;10.548;2022-12-07T11:51:36;100147.13;;;4.77;100.00
7050;BME280;22263;52.260;10.548;2022-12-07T11:54:13;100153.59;;;4.85;100.00
7050;BME280;22263;52.260;10.548;2022-12-07T11:56:43;100140.94;;;4.80;100.00
7050;BME280;22263;52.260;10.548;2022-12-07T11:59:23;100139.38;;;4.79;100.00
7050;BME280;22263;52.260;10.548;2022-12-07T12:01:57;100142.44;;;4.78;100.00
7050;BME280;22263;52.260;10.548;2022-12-07T12:04:45;100127.31;;;4.68;100.00
7050;BME280;22263;52.260;10.548;2022-12-07T12:07:19;100133.34;;;4.74;100.00
7050;BME280;22263;52.260;10.548;2022-12-07T12:10:17;100129.88;;;4.77;100.00
7050;BME280;22263;52.260;10.548;2022-12-07T12:13:12;100129.56;;;4.66;100.00
7050;BME280;22263;52.260;10.548;2022-12-07T12:16:21;100134.56;;;4.76;100.00
7050;BME280;22263;52.260;10.548;2022-12-07T12:19:11;100134.38;;;4.69;100.00
7050;BME280;22263;52.260;10.548;2022-12-07T12:21:45;100136.97;;;4.78;100.00
7050;BME280;22263;52.260;10.548;2022-12-07T12:24:25;100128.91;;;4.69;100.00
7050;BME280;22263;52.260;10.548;2022-12-07T12:27:02;100117.38;;;4.64;100.00
7050;BME280;22263;52.260;10.548;2022-12-07T12:29:34;100130.06;;;4.56;100.00
7050;BME280;22263;52.260;10.548;2022-12-07T12:32:14;100121.91;;;4.44;100.00
7050;BME280;22263;52.260;10.548;2022-12-07T12:35:00;100115.63;;;4.44;100.00
7050;BME280;22263;52.260;10.548;2022-12-07T12:37:42;100122.34;;;4.46;100.00
7050;BME280;22263;52.260;10.548;2022-12-07T12:40:40;100115.41;;;4.36;100.00
7050;BME280;22263;52.260;10.548;2022-12-07T12:46:45;100118.91;;;4.49;100.00
7050;BME280;22263;52.260;10.548;2022-12-07T12:49:37;100119.81;;;4.53;100.00
7050;BME280;22263;52.260;10.548;2022-12-07T12:55:43;100115.06;;;4.38;100.00
7050;BME280;22263;52.260;10.548;2022-12-07T12:58:32;100116.94;;;4.62;100.00
7050;BME280;22263;52.260;10.548;2022-12-07T13:07:52;100112.72;;;4.64;100.00
7050;BME280;22263;52.260;10.548;2022-12-07T13:13:32;100099.53;;;4.42;100.00
7050;BME280;22263;52.260;10.548;2022-12-07T13:19:02;100105.06;;;4.30;100.00
7050;BME280;22263;52.260;10.548;2022-12-07T13:21:42;100103.00;;;4.27;100.00
7050;BME280;22263;52.260;10.548;2022-12-07T13:24:15;100116.47;;;4.20;100.00
7050;BME280;22263;52.260;10.548;2022-12-07T13:26:44;100103.13;;;4.18;100.00
7050;BME280;22263;52.260;10.548;2022-12-07T13:29:17;100110.22;;;4.19;100.00
7050;BME280;22263;52.260;10.548;2022-12-07T13:31:50;100107.94;;;4.21;100.00
7050;BME280;22263;52.260;10.548;2022-12-07T13:34:29;100110.44;;;4.26;100.00
7050;BME280;22263;52.260;10.548;2022-12-07T13:37:01;100111.22;;;4.27;100.00
7050;BME280;22263;52.260;10.548;2022-12-07T13:39:35;100107.13;;;4.21;100.00
7050;BME280;22263;52.260;10.548;2022-12-07T13:42:19;100099.59;;;4.30;100.00
7050;BME280;22263;52.260;10.548;2022-12-07T13:44:51;100102.47;;;4.21;100.00